Terminal Aerodrome Forecast
Issued by NWS

Home | Current Version | Previous Version | Text Only | Print | Product List | Glossary On
Versions: 1 2 3 4 5 6 7 8 9 10 11 12 13 14 15 16 17 18 19
000
FTUS41 KLWX 271100
TAFMTN
TAF
KMTN 271140Z 2712/2812 32008KT 6SM -SN OVC035
     FM271500 31013G22KT P6SM OVC035
     FM272100 31014G23KT P6SM BKN060
     FM280600 30012KT P6SM FEW250=

USA.gov is the U.S. government's official web portal to all federal, state and local government web resources and services.